createdAt,value
2019-03-09T00:02:21.362Z,100420.70
2019-03-09T00:04:53.735Z,100419.81
2019-03-09T00:07:26.201Z,100421.81
2019-03-09T00:09:58.575Z,100420.08
2019-03-09T00:12:30.946Z,100412.24
2019-03-09T00:15:02.929Z,100417.92
2019-03-09T00:17:35.796Z,100410.00
2019-03-09T00:20:09.812Z,100412.30
2019-03-09T00:22:43.725Z,100410.05
2019-03-09T00:25:27.142Z,100416.89
2019-03-09T00:28:07.099Z,100412.59
2019-03-09T00:30:41.110Z,100414.97
2019-03-09T00:33:13.028Z,100410.59
2019-03-09T00:35:45.445Z,100409.38
2019-03-09T00:38:17.816Z,100406.02
2019-03-09T00:40:50.291Z,100408.84
2019-03-09T00:43:22.671Z,100401.33
2019-03-09T00:45:55.027Z,100397.48
2019-03-09T00:48:27.407Z,100390.86
2019-03-09T00:50:59.779Z,100381.05
2019-03-09T00:53:32.450Z,100372.05
2019-03-09T00:56:04.841Z,100373.56
2019-03-09T00:58:37.200Z,100379.07
2019-03-09T01:01:09.188Z,100385.02
2019-03-09T01:03:41.545Z,100388.85
2019-03-09T01:06:13.906Z,100394.70
2019-03-09T01:08:46.271Z,100385.92
2019-03-09T01:11:18.653Z,100382.49
2019-03-09T01:13:51.029Z,100377.94
2019-03-09T01:16:23.387Z,100373.09
2019-03-09T01:18:55.313Z,100370.37
2019-03-09T01:21:27.787Z,100361.61
2019-03-09T01:24:00.103Z,100365.98
2019-03-09T01:26:32.579Z,100359.50
2019-03-09T01:29:04.947Z,100348.11
2019-03-09T01:31:37.174Z,100353.44
2019-03-09T01:34:09.493Z,100343.44
2019-03-09T01:36:41.860Z,100345.03
2019-03-09T01:39:14.227Z,100347.00
2019-03-09T01:41:46.586Z,100351.03
2019-03-09T01:44:19.282Z,100340.17
2019-03-09T01:46:51.665Z,100345.89
2019-03-09T01:49:24.032Z,100339.49
2019-03-09T01:51:56.405Z,100335.16
2019-03-09T01:54:28.760Z,100332.56
2019-03-09T01:57:01.140Z,100337.44
2019-03-09T01:59:33.512Z,100330.95
2019-03-09T02:02:05.981Z,100323.48
2019-03-09T02:04:38.353Z,100317.76
2019-03-09T02:07:11.343Z,100319.05
2019-03-09T02:09:43.712Z,100318.65
2019-03-09T02:12:16.081Z,100309.48
2019-03-09T02:14:48.461Z,100321.70
2019-03-09T02:17:20.827Z,100311.27
2019-03-09T02:19:53.096Z,100299.02
2019-03-09T02:22:26.903Z,100288.50
2019-03-09T02:24:59.170Z,100283.04
2019-03-09T02:27:31.555Z,100293.91
2019-03-09T02:30:03.942Z,100283.22
2019-03-09T02:32:36.401Z,100275.79
2019-03-09T02:35:17.364Z,100277.22
2019-03-09T02:37:49.751Z,100264.47
2019-03-09T02:40:23.721Z,100271.85
2019-03-09T02:42:55.756Z,100271.72
2019-03-09T02:45:31.356Z,100262.15
2019-03-09T02:48:03.347Z,100257.32
2019-03-09T02:50:37.227Z,100247.88
2019-03-09T02:53:09.701Z,100240.73
2019-03-09T02:55:41.629Z,100237.91
2019-03-09T02:58:14.035Z,100229.72
2019-03-09T03:00:47.927Z,100223.64
2019-03-09T03:03:20.332Z,100233.48
2019-03-09T03:05:52.697Z,100232.72
2019-03-09T03:08:25.007Z,100227.48
2019-03-09T03:10:57.343Z,100213.87
2019-03-09T03:13:29.338Z,100205.48
2019-03-09T03:16:01.662Z,100202.43
2019-03-09T03:18:34.037Z,100196.11
2019-03-09T03:21:06.416Z,100194.13
2019-03-09T03:23:38.789Z,100186.88
2019-03-09T03:26:11.163Z,100186.16
2019-03-09T03:28:44.046Z,100184.98
2019-03-09T03:31:16.214Z,100173.91
2019-03-09T03:33:48.574Z,100174.03
2019-03-09T03:36:20.975Z,100178.02
2019-03-09T03:38:53.317Z,100160.93
2019-03-09T03:41:25.760Z,100167.58
2019-03-09T03:43:58.119Z,100165.63
2019-03-09T03:46:32.190Z,100163.52
2019-03-09T03:49:04.206Z,100159.63
2019-03-09T03:51:36.521Z,100157.48
2019-03-09T03:54:08.880Z,100156.41
2019-03-09T03:56:41.260Z,100148.99
2019-03-09T03:59:13.634Z,100138.65
2019-03-09T04:01:46.001Z,100140.95
2019-03-09T04:04:18.367Z,100144.97
2019-03-09T04:06:50.752Z,100143.26
2019-03-09T04:09:22.976Z,100136.55
2019-03-09T04:11:55.129Z,100133.26
2019-03-09T04:14:27.549Z,100134.15
2019-03-09T04:16:59.820Z,100132.07
2019-03-09T04:19:32.264Z,100123.39
2019-03-09T04:22:04.703Z,100114.82
2019-03-09T04:24:38.594Z,100113.11
2019-03-09T04:27:12.071Z,100108.89
2019-03-09T04:29:44.455Z,100095.45
2019-03-09T04:32:16.817Z,100095.48
2019-03-09T04:34:48.813Z,100090.81
2019-03-09T04:37:21.150Z,100080.94
2019-03-09T04:39:53.519Z,100079.86
2019-03-09T04:42:25.894Z,100054.13
2019-03-09T04:44:58.583Z,100069.94
2019-03-09T04:47:32.479Z,100063.17
2019-03-09T04:50:07.980Z,100059.66
2019-03-09T04:52:40.306Z,100054.70
2019-03-09T04:55:12.283Z,100055.28
2019-03-09T04:57:44.637Z,100056.99
2019-03-09T05:00:17.825Z,100054.60
2019-03-09T05:02:49.784Z,100063.63
2019-03-09T05:05:22.156Z,100068.80
2019-03-09T05:08:19.447Z,100059.59
2019-03-09T05:10:58.158Z,100060.69
2019-03-09T05:13:36.538Z,100050.00
2019-03-09T05:16:08.931Z,100035.42
2019-03-09T05:18:41.298Z,100031.69
2019-03-09T05:21:13.670Z,100035.55
2019-03-09T05:23:46.044Z,100027.64
2019-03-09T05:26:18.242Z,100015.89
2019-03-09T05:28:50.675Z,100018.92
2019-03-09T05:31:22.668Z,100008.98
2019-03-09T05:33:55.110Z,100006.75
2019-03-09T05:36:27.476Z,99999.38
2019-03-09T05:39:00.511Z,99993.22
2019-03-09T05:41:34.376Z,99996.22
2019-03-09T05:44:06.293Z,99975.38
2019-03-09T05:46:38.718Z,99968.06
2019-03-09T05:49:13.027Z,99959.68
2019-03-09T05:51:47.048Z,99952.67
2019-03-09T05:54:20.076Z,99948.74
2019-03-09T05:56:52.071Z,99945.25
2019-03-09T05:59:24.460Z,99934.05
2019-03-09T06:01:56.833Z,99928.85
2019-03-09T06:04:28.972Z,99931.08
2019-03-09T06:07:01.474Z,99919.80
2019-03-09T06:09:33.848Z,99915.48
2019-03-09T06:12:06.218Z,99908.17
2019-03-09T06:14:38.603Z,99906.09
2019-03-09T06:17:10.965Z,99891.81
2019-03-09T06:19:43.347Z,99882.75
2019-03-09T06:22:15.815Z,99881.66
2019-03-09T06:24:48.391Z,99872.29
2019-03-09T06:27:20.762Z,99872.90
2019-03-09T06:29:53.778Z,99870.02
2019-03-09T06:32:40.556Z,99861.95
2019-03-09T06:35:24.701Z,99858.66
2019-03-09T06:38:10.701Z,99855.86
2019-03-09T06:40:43.070Z,99851.75
2019-03-09T06:43:15.438Z,99855.48
2019-03-09T06:45:47.808Z,99849.96
2019-03-09T06:48:19.800Z,99849.67
2019-03-09T06:50:53.589Z,99846.43
2019-03-09T06:53:25.584Z,99844.02
2019-03-09T06:55:57.960Z,99837.22
2019-03-09T06:58:30.322Z,99829.12
2019-03-09T07:01:05.866Z,99824.09
2019-03-09T07:03:38.249Z,99815.98
2019-03-09T07:06:10.561Z,99810.16
2019-03-09T07:08:42.494Z,99823.53
2019-03-09T07:11:14.856Z,99802.95
2019-03-09T07:13:52.882Z,99802.44
2019-03-09T07:16:21.227Z,99788.98
2019-03-09T07:18:53.599Z,99770.67
2019-03-09T07:21:25.983Z,99778.53
2019-03-09T07:23:57.924Z,99764.44
2019-03-09T07:26:30.330Z,99755.63
2019-03-09T07:29:02.676Z,99745.54
2019-03-09T07:31:35.058Z,99731.06
2019-03-09T07:34:22.658Z,99732.95
2019-03-09T07:36:55.051Z,99727.10
2019-03-09T07:39:27.427Z,99709.91
2019-03-09T07:41:59.802Z,99699.23
2019-03-09T07:44:32.191Z,99710.15
2019-03-09T07:47:04.586Z,99727.23
2019-03-09T07:49:36.916Z,99705.39
2019-03-09T07:52:32.731Z,99685.34
2019-03-09T07:55:07.064Z,99690.50
2019-03-09T07:57:38.983Z,99690.84
2019-03-09T08:00:18.143Z,99699.98
2019-03-09T08:02:50.408Z,99656.91
2019-03-09T08:05:23.294Z,99664.39
2019-03-09T08:07:55.576Z,99659.59
2019-03-09T08:10:31.936Z,99656.55
2019-03-09T08:13:05.448Z,99662.56
2019-03-09T08:15:37.807Z,99639.84
2019-03-09T08:18:10.171Z,99642.75
2019-03-09T08:20:42.150Z,99646.50
2019-03-09T08:23:14.060Z,99652.91
2019-03-09T08:25:46.474Z,99642.83
2019-03-09T08:28:19.404Z,99642.76
2019-03-09T08:30:51.734Z,99638.39
2019-03-09T08:33:24.112Z,99636.13
2019-03-09T08:35:56.481Z,99636.55
2019-03-09T08:38:28.861Z,99635.17
2019-03-09T08:41:01.740Z,99626.80
2019-03-09T08:43:34.214Z,99621.94
2019-03-09T08:46:06.570Z,99627.52
2019-03-09T08:48:38.942Z,99614.77
2019-03-09T08:51:11.323Z,99609.91
2019-03-09T08:53:43.703Z,99613.27
2019-03-09T08:56:15.721Z,99622.34
2019-03-09T08:58:48.019Z,99603.14
2019-03-09T09:01:20.405Z,99581.31
2019-03-09T09:03:52.826Z,99596.08
2019-03-09T09:06:25.258Z,99597.78
2019-03-09T09:08:57.617Z,99591.20
2019-03-09T09:11:29.568Z,99598.49
2019-03-09T09:14:01.948Z,99582.36
2019-03-09T09:16:34.321Z,99581.41
2019-03-09T09:19:06.683Z,99570.98
2019-03-09T09:21:39.063Z,99582.72
2019-03-09T09:24:11.442Z,99575.25
2019-03-09T09:26:43.807Z,99569.98
2019-03-09T09:29:16.186Z,99586.06
2019-03-09T09:31:48.555Z,99580.87
2019-03-09T09:34:20.487Z,99583.94
2019-03-09T09:36:52.888Z,99569.97
2019-03-09T09:39:25.258Z,99554.32
2019-03-09T09:41:59.613Z,99554.20
2019-03-09T09:44:33.181Z,99545.48
2019-03-09T10:01:28.576Z,99543.55
2019-03-09T10:04:00.941Z,99549.83
2019-03-09T10:06:32.963Z,99539.85
2019-03-09T10:09:07.037Z,99555.87
2019-03-09T10:11:40.521Z,99547.22
2019-03-09T10:14:12.915Z,99542.91
2019-03-09T10:16:45.273Z,99537.64
2019-03-09T10:19:17.230Z,99532.00
2019-03-09T10:21:49.607Z,99551.41
2019-03-09T10:24:21.980Z,99524.89
2019-03-09T10:26:54.240Z,99517.16
2019-03-09T10:29:26.621Z,99527.15
2019-03-09T10:31:58.993Z,99544.97
2019-03-09T10:34:31.355Z,99535.52
2019-03-09T10:37:03.289Z,99517.30
2019-03-09T10:39:35.582Z,99536.02
2019-03-09T10:42:07.970Z,99528.84
2019-03-09T10:44:40.330Z,99516.72
2019-03-09T10:47:12.712Z,99515.95
2019-03-09T10:49:45.079Z,99522.61
2019-03-09T10:52:17.767Z,99521.58
2019-03-09T10:54:50.121Z,99528.90
2019-03-09T10:57:22.508Z,99505.98
2019-03-09T10:59:54.875Z,99498.93
2019-03-09T11:02:27.150Z,99513.37
2019-03-09T11:04:59.095Z,99508.73
2019-03-09T11:07:31.373Z,99473.46
2019-03-09T11:10:07.335Z,99485.66
2019-03-09T11:12:39.708Z,99486.92
2019-03-09T11:15:12.077Z,99491.72
2019-03-09T11:17:45.374Z,99496.29
2019-03-09T11:20:20.186Z,99482.83
2019-03-09T11:22:53.492Z,99486.23
2019-03-09T11:25:25.868Z,99503.20
2019-03-09T11:28:15.136Z,99490.15
2019-03-09T11:30:47.532Z,99490.14
2019-03-09T11:33:19.984Z,99495.41
2019-03-09T11:35:52.346Z,99492.43
2019-03-09T11:38:24.616Z,99494.09
2019-03-09T11:40:58.556Z,99507.15
2019-03-09T11:43:30.137Z,99498.10
2019-03-09T11:46:02.455Z,99500.88
2019-03-09T11:48:34.828Z,99495.31
2019-03-09T11:51:07.307Z,99514.14
2019-03-09T11:53:39.666Z,99496.64
2019-03-09T11:56:12.048Z,99490.88
2019-03-09T11:58:44.422Z,99489.26
2019-03-09T12:01:16.778Z,99506.37
2019-03-09T12:03:49.159Z,99489.06
2019-03-09T12:06:21.535Z,99486.34
2019-03-09T12:08:53.472Z,99477.45
2019-03-09T12:11:25.435Z,99480.88
2019-03-09T12:13:57.824Z,99460.83
2019-03-09T12:16:30.199Z,99435.33
2019-03-09T12:19:02.137Z,99462.94
2019-03-09T12:21:34.538Z,99455.48
2019-03-09T12:24:16.089Z,99451.33
2019-03-09T12:26:40.920Z,99436.20
2019-03-09T12:29:13.284Z,99433.66
2019-03-09T12:31:46.066Z,99453.69
2019-03-09T12:34:18.436Z,99448.80
2019-03-09T12:36:50.814Z,99430.17
2019-03-09T12:39:23.187Z,99432.26
2019-03-09T12:41:55.559Z,99428.70
2019-03-09T12:44:27.485Z,99426.45
2019-03-09T12:46:59.888Z,99434.81
2019-03-09T12:49:32.669Z,99446.16
2019-03-09T12:52:05.043Z,99435.92
2019-03-09T12:54:37.417Z,99417.02
2019-03-09T12:57:09.392Z,99419.30
2019-03-09T12:59:42.984Z,99417.20
2019-03-09T13:02:15.355Z,99401.66
2019-03-09T13:04:47.733Z,99406.81
2019-03-09T13:07:19.698Z,99419.64
2019-03-09T13:09:52.066Z,99428.80
2019-03-09T13:12:24.429Z,99424.49
2019-03-09T13:14:56.809Z,99418.40
2019-03-09T13:17:29.230Z,99424.09
2019-03-09T13:20:01.583Z,99424.77
2019-03-09T13:22:35.314Z,99420.65
2019-03-09T13:25:08.552Z,99406.98
2019-03-09T13:27:41.937Z,99423.38
2019-03-09T13:30:23.426Z,99420.41
2019-03-09T13:32:55.796Z,99427.08
2019-03-09T13:35:28.276Z,99418.66
2019-03-09T13:38:00.961Z,99421.95
2019-03-09T13:40:33.319Z,99436.34
2019-03-09T13:43:05.710Z,99443.02
2019-03-09T13:45:38.066Z,99448.62
2019-03-09T13:48:10.443Z,99452.31
2019-03-09T13:50:42.819Z,99460.83
2019-03-09T13:53:15.284Z,99448.55
2019-03-09T13:55:47.657Z,99453.70
2019-03-09T13:58:19.634Z,99451.37
2019-03-09T14:00:51.987Z,99431.89
2019-03-09T14:03:24.034Z,99454.34
2019-03-09T14:05:56.329Z,99435.69
2019-03-09T14:08:28.286Z,99467.73
2019-03-09T14:11:00.655Z,99463.41
2019-03-09T14:13:33.040Z,99463.03
2019-03-09T14:16:05.406Z,99483.55
2019-03-09T14:18:37.772Z,99457.52
2019-03-09T14:21:10.202Z,99460.10
2019-03-09T14:23:42.641Z,99455.57
2019-03-09T14:26:14.993Z,99461.41
2019-03-09T14:28:47.362Z,99466.38
2019-03-09T14:31:19.297Z,99424.41
2019-03-09T14:33:51.914Z,99457.22
2019-03-09T14:36:24.277Z,99464.20
2019-03-09T14:38:56.656Z,99455.02
2019-03-09T14:41:29.023Z,99457.14
2019-03-09T14:44:01.389Z,99451.05
2019-03-09T14:46:33.668Z,99447.56
2019-03-09T14:49:07.050Z,99446.67
2019-03-09T14:51:39.435Z,99445.36
2019-03-09T14:54:11.815Z,99436.61
2019-03-09T14:56:44.170Z,99430.50
2019-03-09T14:59:16.387Z,99420.85
2019-03-09T15:01:48.721Z,99420.85
2019-03-09T15:04:21.083Z,99423.03
2019-03-09T15:06:53.554Z,99405.59
2019-03-09T15:09:25.929Z,99408.78
2019-03-09T15:11:58.370Z,99414.78
2019-03-09T15:14:30.646Z,99405.43
2019-03-09T15:17:03.887Z,99404.67
2019-03-09T15:19:36.244Z,99398.85
2019-03-09T15:22:08.645Z,99413.70
2019-03-09T15:24:41.096Z,99412.56
2019-03-09T15:27:13.026Z,99407.77
2019-03-09T15:29:45.428Z,99388.58
2019-03-09T15:32:17.349Z,99398.23
2019-03-09T15:34:49.366Z,99379.88
2019-03-09T15:37:21.712Z,99380.32
2019-03-09T15:39:54.095Z,99383.39
2019-03-09T15:42:27.892Z,99377.25
2019-03-09T15:45:00.330Z,99372.89
2019-03-09T15:47:32.749Z,99374.19
2019-03-09T15:50:07.873Z,99371.13
2019-03-09T15:52:39.808Z,99371.15
2019-03-09T15:55:12.925Z,99369.83
2019-03-09T15:57:45.302Z,99367.66
2019-03-09T16:00:25.712Z,99362.86
2019-03-09T16:02:58.036Z,99372.48
2019-03-09T16:05:30.403Z,99371.20
2019-03-09T16:08:02.786Z,99371.20
2019-03-09T16:10:35.157Z,99373.81
2019-03-09T16:13:07.310Z,99371.19
2019-03-09T16:15:39.695Z,99368.12
2019-03-09T16:18:11.628Z,99363.30
2019-03-09T16:20:44.024Z,99370.73
2019-03-09T16:23:16.403Z,99352.84
2019-03-09T16:25:48.862Z,99367.66
2019-03-09T16:28:21.236Z,99366.77
2019-03-09T16:30:53.927Z,99357.59
2019-03-09T16:33:26.297Z,99353.66
2019-03-09T16:35:58.674Z,99351.89
2019-03-09T16:38:31.131Z,99342.27
2019-03-09T16:41:03.514Z,99348.83
2019-03-09T16:43:35.877Z,99344.88
2019-03-09T16:46:08.252Z,99346.20
2019-03-09T16:48:40.630Z,99348.83
2019-03-09T16:51:13.001Z,99353.19
2019-03-09T16:53:45.360Z,99360.60
2019-03-09T16:56:17.745Z,99350.11
2019-03-09T16:58:50.107Z,99349.23
2019-03-09T17:01:22.797Z,99361.41
2019-03-09T17:03:55.161Z,99372.67
2019-03-09T17:06:28.230Z,99329.67
2019-03-09T17:09:01.543Z,99350.78
2019-03-09T17:11:35.451Z,99394.28
2019-03-09T17:14:07.368Z,99400.02
2019-03-09T17:16:42.284Z,99384.98
2019-03-09T17:19:15.849Z,99395.12
2019-03-09T17:21:48.228Z,99403.17
2019-03-09T17:24:20.585Z,99391.30
2019-03-09T17:26:54.392Z,99374.77
2019-03-09T17:29:26.772Z,99375.25
2019-03-09T17:31:59.137Z,99365.59
2019-03-09T17:34:31.508Z,99369.03
2019-03-09T17:37:03.508Z,99368.97
2019-03-09T17:39:35.806Z,99368.37
2019-03-09T17:42:08.213Z,99367.48
2019-03-09T17:44:40.136Z,99369.05
2019-03-09T17:47:12.571Z,99363.83
2019-03-09T17:49:44.926Z,99367.26
2019-03-09T17:52:17.293Z,99365.97
2019-03-09T17:54:49.671Z,99364.61
2019-03-09T17:57:22.041Z,99367.21
2019-03-09T17:59:54.649Z,99352.05
2019-03-09T18:02:26.985Z,99353.79
2019-03-09T18:04:59.367Z,99362.01
2019-03-09T18:07:31.984Z,99368.81
2019-03-09T18:10:06.158Z,99365.44
2019-03-09T18:12:40.465Z,99364.66
2019-03-09T18:15:13.155Z,99373.88
2019-03-09T18:17:46.668Z,99384.89
2019-03-09T18:20:18.802Z,99371.20
2019-03-09T18:22:51.629Z,99361.62
2019-03-09T18:25:25.984Z,99357.70
2019-03-09T18:27:58.400Z,99352.95
2019-03-09T18:30:30.765Z,99367.24
2019-03-09T18:33:03.182Z,99360.31
2019-03-09T18:35:35.863Z,99349.53
2019-03-09T18:38:08.302Z,99341.77
2019-03-09T18:40:40.667Z,99328.31
2019-03-09T18:43:13.025Z,99321.45
2019-03-09T18:45:45.401Z,99319.55
2019-03-09T18:48:17.782Z,99307.31
2019-03-09T18:50:50.248Z,99285.90
2019-03-09T18:53:22.742Z,99279.33
2019-03-09T18:55:59.146Z,99289.72
2019-03-09T18:58:28.814Z,99284.87
2019-03-09T19:01:02.581Z,99272.22
2019-03-09T19:03:35.301Z,99280.41
2019-03-09T19:06:07.659Z,99279.98
2019-03-09T19:08:40.477Z,99279.20
2019-03-09T19:11:12.378Z,99268.31
2019-03-09T19:13:44.777Z,99252.29
2019-03-09T19:16:17.152Z,99262.34
2019-03-09T19:18:49.509Z,99246.28
2019-03-09T19:21:21.884Z,99237.23
2019-03-09T19:23:54.253Z,99218.36
2019-03-09T19:26:26.641Z,99232.73
2019-03-09T19:31:57.963Z,99218.66
2019-03-09T19:34:34.778Z,99212.89
2019-03-09T19:37:07.244Z,99201.53
2019-03-09T19:39:39.618Z,99190.65
2019-03-09T19:42:11.998Z,99181.87
2019-03-09T19:44:44.376Z,99179.22
2019-03-09T19:47:16.747Z,99174.89
2019-03-09T19:49:49.104Z,99170.05
2019-03-09T19:52:21.024Z,99168.70
2019-03-09T19:54:53.436Z,99172.97
2019-03-09T20:00:27.477Z,99162.37
2019-03-09T20:02:59.846Z,99157.95
2019-03-09T20:05:32.218Z,99175.25
2019-03-09T20:11:19.800Z,99161.58
2019-03-09T20:13:54.824Z,99153.31
2019-03-09T20:19:38.783Z,99130.98
2019-03-09T20:26:59.095Z,99117.39
2019-03-09T20:29:31.454Z,99121.61
2019-03-09T20:32:03.452Z,99104.23
2019-03-09T20:34:44.199Z,99103.34
2019-03-09T20:37:17.475Z,99104.13
2019-03-09T20:39:53.707Z,99109.28
2019-03-09T20:43:08.120Z,99102.30
2019-03-09T20:45:48.979Z,99100.11
2019-03-09T20:48:21.338Z,99103.97
2019-03-09T20:50:53.783Z,99106.09
2019-03-09T20:53:26.389Z,99099.13
2019-03-09T20:55:58.760Z,99087.42
2019-03-09T20:58:31.133Z,99084.41
2019-03-09T21:01:03.518Z,99080.04
2019-03-09T21:03:35.445Z,99081.38
2019-03-09T21:06:07.861Z,99082.17
2019-03-09T21:08:40.223Z,99086.52
2019-03-09T21:11:12.595Z,99082.63
2019-03-09T21:13:44.970Z,99075.66
2019-03-09T21:16:17.350Z,99077.80
2019-03-09T21:18:49.250Z,99077.33
2019-03-09T21:21:22.090Z,99078.20
2019-03-09T21:26:59.190Z,99082.09
2019-03-09T21:29:31.555Z,99084.70
2019-03-09T21:32:03.955Z,99082.58
2019-03-09T21:37:30.066Z,99090.06
2019-03-09T21:40:01.995Z,99093.14
2019-03-09T21:42:34.400Z,99088.88
2019-03-09T21:45:11.092Z,99091.06
2019-03-09T21:47:43.387Z,99097.61
2019-03-09T21:50:17.508Z,99100.69
2019-03-09T21:52:49.938Z,99105.52
2019-03-09T21:55:22.312Z,99109.91
2019-03-09T21:57:54.684Z,99105.22
2019-03-09T22:00:34.518Z,99103.97
2019-03-09T22:03:08.747Z,99108.76
2019-03-09T22:08:36.316Z,99097.20
2019-03-09T22:11:08.684Z,99093.39
2019-03-09T22:13:41.064Z,99094.69
2019-03-09T22:16:13.427Z,99087.34
2019-03-09T22:18:45.807Z,99075.64
2019-03-09T22:21:18.174Z,99077.36
2019-03-09T22:23:50.551Z,99089.07
2019-03-09T22:26:24.066Z,99091.20
2019-03-09T22:28:56.414Z,99088.22
2019-03-09T22:31:28.799Z,99105.62
2019-03-09T22:34:06.031Z,99103.44
2019-03-09T22:37:08.689Z,99096.50
2019-03-09T22:40:00.446Z,99109.15
2019-03-09T22:42:42.014Z,99118.68
2019-03-09T22:45:27.432Z,99141.64
2019-03-09T22:48:00.734Z,99144.66
2019-03-09T22:50:33.138Z,99144.23
2019-03-09T22:53:05.494Z,99162.41
2019-03-09T22:55:37.873Z,99166.36
2019-03-09T22:58:10.228Z,99149.41
2019-03-09T23:00:43.831Z,99166.50
2019-03-09T23:03:17.993Z,99181.61
2019-03-09T23:05:50.316Z,99173.75
2019-03-09T23:08:22.698Z,99189.73
2019-03-09T23:10:55.068Z,99198.84
2019-03-09T23:13:28.453Z,99203.17
2019-03-09T23:16:00.826Z,99209.68
2019-03-09T23:18:33.981Z,99217.54
2019-03-09T23:21:06.294Z,99239.66
2019-03-09T23:23:38.658Z,99278.35
2019-03-09T23:26:11.041Z,99293.14
2019-03-09T23:28:48.147Z,99305.27
2019-03-09T23:31:20.060Z,99330.30
2019-03-09T23:33:52.449Z,99350.04
2019-03-09T23:36:24.829Z,99355.55
2019-03-09T23:38:57.198Z,99362.56
2019-03-09T23:41:29.574Z,99397.92
2019-03-09T23:44:01.935Z,99386.02
2019-03-09T23:46:34.316Z,99418.38
2019-03-09T23:49:06.687Z,99399.63
2019-03-09T23:51:38.961Z,99427.41
2019-03-09T23:54:11.329Z,99448.96
2019-03-09T23:56:43.590Z,99451.30
2019-03-09T23:59:15.967Z,99446.03
